Time;durP1;ratioP1;P1;durP2;ratioP2;P2;SDS_P1;SDS_P2;PMS_P1;PMS_P2;Temp;Humidity;BMP_temperature;BMP_pressure;BME280_temperature;BME280_humidity;BME280_pressure;Samples;Min_cycle;Max_cycle;Signal;HPM_P1;HPM_P2
2022/11/23 00:00:41;;;;;;;126.77;41.33;;;0.70;99.90;;;;;;5231621;28;20275;-49
2022/11/23 00:03:15;;;;;;;109.30;38.40;;;0.80;99.90;;;;;;5226905;28;20307;-48
2022/11/23 00:05:45;;;;;;;134.03;40.43;;;0.80;99.90;;;;;;5232300;28;20745;-51
2022/11/23 00:08:16;;;;;;;114.03;41.50;;;0.80;99.90;;;;;;5234577;28;20443;-49
2022/11/23 00:10:46;;;;;;;139.87;43.00;;;0.80;99.90;;;;;;5217469;28;20192;-52
2022/11/23 00:13:17;;;;;;;107.93;41.00;;;0.80;99.90;;;;;;5236193;28;20288;-49
2022/11/23 00:15:47;;;;;;;107.70;40.00;;;0.70;99.90;;;;;;5230425;28;20662;-49
2022/11/23 00:18:18;;;;;;;115.93;39.33;;;0.80;99.90;;;;;;5216485;28;20185;-51
2022/11/23 00:20:49;;;;;;;115.80;39.00;;;0.80;99.90;;;;;;5220194;28;20181;-50
2022/11/23 00:23:19;;;;;;;110.67;40.40;;;0.80;99.90;;;;;;5234104;28;20236;-53
2022/11/23 00:25:50;;;;;;;132.03;39.97;;;0.80;99.90;;;;;;5214748;28;20194;-49
2022/11/23 00:28:20;;;;;;;127.00;41.27;;;0.70;99.90;;;;;;5200499;28;20537;-49
2022/11/23 00:30:51;;;;;;;110.50;39.30;;;0.80;99.90;;;;;;5227927;28;20691;-49
2022/11/23 00:33:22;;;;;;;120.10;39.70;;;0.80;99.90;;;;;;5210133;28;20318;-49
2022/11/23 00:36:06;;;;;;;107.37;39.90;;;0.80;99.90;;;;;;5215103;28;20600;-51
2022/11/23 00:38:37;;;;;;;119.07;40.37;;;0.80;99.90;;;;;;5226742;28;20205;-50
2022/11/23 00:41:11;;;;;;;130.93;42.87;;;0.80;99.90;;;;;;5221561;28;20504;-49
2022/11/23 00:43:42;;;;;;;129.67;42.47;;;0.70;99.90;;;;;;5237885;28;20462;-50
2022/11/23 00:46:22;;;;;;;124.40;40.27;;;0.70;99.90;;;;;;5235452;28;20428;-50
2022/11/23 00:48:55;;;;;;;113.97;39.83;;;0.70;99.90;;;;;;5210198;28;20436;-49
2022/11/23 00:51:31;;;;;;;116.03;40.77;;;0.70;99.90;;;;;;5228952;28;20480;-49
2022/11/23 00:54:04;;;;;;;124.83;39.87;;;0.80;99.90;;;;;;5216620;28;20461;-49
2022/11/23 00:56:35;;;;;;;114.17;37.50;;;0.70;99.90;;;;;;5216973;28;20955;-51
2022/11/23 00:59:06;;;;;;;110.37;40.07;;;0.80;99.90;;;;;;5232552;28;20477;-52
2022/11/23 01:01:36;;;;;;;122.87;40.37;;;0.80;99.90;;;;;;5234010;28;20734;-50
2022/11/23 01:04:07;;;;;;;119.23;38.20;;;0.80;99.90;;;;;;5230442;28;20210;-50
2022/11/23 01:06:39;;;;;;;117.07;40.50;;;0.80;99.90;;;;;;5227666;28;20228;-50
2022/11/23 01:09:17;;;;;;;104.30;38.93;;;0.90;99.90;;;;;;5227244;28;20464;-49
2022/11/23 01:11:48;;;;;;;114.17;38.23;;;0.90;99.90;;;;;;5238045;28;20437;-49
2022/11/23 01:14:20;;;;;;;116.00;38.60;;;0.90;99.90;;;;;;5238044;28;21698;-49
2022/11/23 01:16:50;;;;;;;100.57;36.90;;;0.90;99.90;;;;;;5234184;28;20187;-50
2022/11/23 01:19:21;;;;;;;98.57;36.77;;;0.90;99.90;;;;;;5234514;28;20969;-50
2022/11/23 01:21:52;;;;;;;122.37;39.60;;;0.90;99.90;;;;;;5234479;28;20284;-50
2022/11/23 01:24:22;;;;;;;99.17;37.10;;;0.90;99.90;;;;;;5238881;28;20190;-49
2022/11/23 01:26:54;;;;;;;112.30;38.27;;;0.80;99.90;;;;;;5235992;28;20193;-50
2022/11/23 01:29:24;;;;;;;115.30;37.13;;;0.90;99.90;;;;;;5234337;28;20180;-53
2022/11/23 01:31:55;;;;;;;112.83;38.40;;;0.80;99.90;;;;;;5216625;28;20429;-51
2022/11/23 01:34:26;;;;;;;115.27;39.90;;;0.80;99.90;;;;;;5233767;28;20713;-53
2022/11/23 01:36:56;;;;;;;103.93;38.30;;;0.80;99.90;;;;;;5214816;28;20187;-52
2022/11/23 01:39:27;;;;;;;102.63;38.23;;;0.80;99.90;;;;;;5234206;28;20174;-49
2022/11/23 01:41:58;;;;;;;99.70;36.50;;;0.80;99.90;;;;;;5234927;28;20305;-50
2022/11/23 01:44:31;;;;;;;120.27;37.70;;;0.80;99.90;;;;;;5231318;28;20205;-49
2022/11/23 01:47:04;;;;;;;119.07;39.20;;;0.90;99.90;;;;;;5225479;28;20174;-50
2022/11/23 01:49:39;;;;;;;112.63;39.70;;;0.90;99.90;;;;;;5224821;28;20793;-50
2022/11/23 01:52:24;;;;;;;105.63;35.87;;;1.00;99.90;;;;;;5237601;28;20458;-48
2022/11/23 01:54:57;;;;;;;98.17;38.20;;;1.00;99.90;;;;;;5236284;28;20525;-51
2022/11/23 01:57:34;;;;;;;105.13;36.90;;;1.00;99.90;;;;;;5227736;28;21022;-53
2022/11/23 02:00:07;;;;;;;90.90;36.53;;;1.00;99.90;;;;;;5215160;28;20443;-49
2022/11/23 02:02:39;;;;;;;87.33;34.73;;;1.10;99.90;;;;;;5219288;28;20465;-52
2022/11/23 02:05:11;;;;;;;91.53;36.40;;;1.10;99.90;;;;;;5244004;28;20959;-49
2022/11/23 02:07:42;;;;;;;91.43;34.73;;;1.20;99.90;;;;;;5234050;28;20437;-48
2022/11/23 02:10:12;;;;;;;98.23;37.30;;;1.20;99.90;;;;;;5225908;28;20467;-52
2022/11/23 02:12:43;;;;;;;108.03;41.43;;;1.20;99.90;;;;;;5238902;28;20183;-50
2022/11/23 02:15:14;;;;;;;92.77;36.97;;;1.30;99.90;;;;;;5232483;28;20185;-49
2022/11/23 02:17:45;;;;;;;80.03;32.80;;;1.30;99.90;;;;;;5216492;28;20178;-49
2022/11/23 02:20:17;;;;;;;92.77;37.90;;;1.30;99.90;;;;;;5235762;28;20198;-52
2022/11/23 02:22:56;;;;;;;98.33;35.53;;;1.30;99.90;;;;;;5228436;28;20511;-48
2022/11/23 02:25:45;;;;;;;73.17;34.37;;;1.40;99.90;;;;;;5218998;28;20471;-50
2022/11/23 02:28:22;;;;;;;90.03;36.10;;;1.50;99.90;;;;;;5236158;28;20440;-51
2022/11/23 02:30:54;;;;;;;77.97;31.40;;;1.50;99.90;;;;;;5237156;28;20441;-50
2022/11/23 02:33:24;;;;;;;84.20;33.37;;;1.50;99.90;;;;;;5231289;28;20475;-51
2022/11/23 02:36:00;;;;;;;74.33;33.47;;;1.50;99.90;;;;;;5218220;28;20433;-52
2022/11/23 02:38:32;;;;;;;86.33;33.90;;;1.50;99.90;;;;;;5234754;28;20193;-48
2022/11/23 02:41:03;;;;;;;80.80;32.70;;;1.40;99.90;;;;;;5238401;28;20462;-51
2022/11/23 02:43:33;;;;;;;84.53;33.40;;;1.50;99.90;;;;;;5203761;28;20464;-49
2022/11/23 02:46:05;;;;;;;80.83;33.27;;;1.50;99.90;;;;;;5217127;28;20190;-54
2022/11/23 02:48:35;;;;;;;77.57;32.73;;;1.50;99.90;;;;;;5224971;28;20769;-49
2022/11/23 02:51:06;;;;;;;86.47;32.73;;;1.40;99.90;;;;;;5229804;28;20544;-48
2022/11/23 02:53:36;;;;;;;84.20;35.03;;;1.50;99.90;;;;;;5218430;28;20233;-50
2022/11/23 02:56:07;;;;;;;88.43;34.27;;;1.40;99.90;;;;;;5236412;28;20183;-49
2022/11/23 02:58:38;;;;;;;79.37;32.23;;;1.40;99.90;;;;;;5225013;28;20195;-51
2022/11/23 03:01:08;;;;;;;87.40;33.83;;;1.40;99.90;;;;;;5236445;28;20210;-50
2022/11/23 03:03:39;;;;;;;78.40;33.30;;;1.50;99.90;;;;;;5234804;28;20324;-49
2022/11/23 03:06:09;;;;;;;88.87;34.30;;;1.40;99.90;;;;;;5233021;28;20194;-50
2022/11/23 03:08:40;;;;;;;79.00;33.27;;;1.40;99.90;;;;;;5228558;28;20181;-49
2022/11/23 03:11:10;;;;;;;81.90;32.67;;;1.40;99.90;;;;;;5226099;28;20185;-50
2022/11/23 03:13:41;;;;;;;72.20;32.77;;;1.30;99.90;;;;;;5219908;28;20198;-49
2022/11/23 03:16:12;;;;;;;72.23;32.00;;;1.20;99.90;;;;;;5228054;28;20718;-49
2022/11/23 03:18:42;;;;;;;80.67;33.83;;;1.30;99.90;;;;;;5235203;28;20553;-51
2022/11/23 03:21:13;;;;;;;81.37;33.87;;;1.30;99.90;;;;;;5211934;28;20194;-51
2022/11/23 03:23:44;;;;;;;76.57;32.30;;;1.20;99.90;;;;;;5238583;28;20217;-52
2022/11/23 03:26:15;;;;;;;86.40;34.00;;;1.20;99.90;;;;;;5235003;28;20278;-49
2022/11/23 03:28:45;;;;;;;74.10;31.10;;;1.10;99.90;;;;;;5238986;28;20561;-49
2022/11/23 03:31:16;;;;;;;83.73;35.40;;;1.10;99.90;;;;;;5228897;28;20186;-50
2022/11/23 03:33:46;;;;;;;84.83;35.63;;;1.00;99.90;;;;;;5210130;28;20222;-51
2022/11/23 03:36:17;;;;;;;102.77;39.20;;;1.00;99.90;;;;;;5234558;28;20559;-50
2022/11/23 03:38:48;;;;;;;100.13;37.23;;;1.00;99.90;;;;;;5206130;28;20581;-53
2022/11/23 03:41:18;;;;;;;92.97;36.53;;;1.00;99.90;;;;;;5215641;28;20183;-50
2022/11/23 03:43:49;;;;;;;94.77;36.50;;;0.90;99.90;;;;;;5237972;28;20608;-49
2022/11/23 03:46:19;;;;;;;99.07;37.10;;;1.00;99.90;;;;;;5227528;28;20179;-49
2022/11/23 03:48:50;;;;;;;95.10;37.70;;;0.90;99.90;;;;;;5213458;28;20635;-51
2022/11/23 03:51:21;;;;;;;95.17;37.13;;;0.80;99.90;;;;;;5214662;28;20181;-51
2022/11/23 03:53:51;;;;;;;86.37;35.23;;;0.80;99.90;;;;;;5232972;28;20202;-55
2022/11/23 03:56:22;;;;;;;84.17;37.00;;;0.80;99.90;;;;;;5233199;28;20968;-49
2022/11/23 03:58:52;;;;;;;91.37;37.60;;;0.90;99.90;;;;;;5234737;28;20222;-51
2022/11/23 04:01:23;;;;;;;100.53;37.30;;;0.90;99.90;;;;;;5217155;28;20330;-50
2022/11/23 04:03:53;;;;;;;99.50;37.90;;;0.80;99.90;;;;;;5234914;28;20263;-49
2022/11/23 04:06:24;;;;;;;112.17;37.13;;;0.80;99.90;;;;;;5216837;28;20186;-49
2022/11/23 04:08:56;;;;;;;114.63;37.10;;;0.80;99.90;;;;;;5239661;28;20192;-56
2022/11/23 04:11:26;;;;;;;94.03;36.83;;;0.80;99.90;;;;;;5219198;28;20179;-50
2022/11/23 04:13:57;;;;;;;83.87;35.23;;;0.80;99.90;;;;;;5219546;28;20470;-52
2022/11/23 04:16:27;;;;;;;97.03;34.53;;;0.70;99.90;;;;;;5229628;28;20178;-49
2022/11/23 04:18:58;;;;;;;85.97;36.80;;;0.70;99.90;;;;;;5235920;28;20178;-50
2022/11/23 04:21:28;;;;;;;73.57;34.50;;;0.70;99.90;;;;;;5235357;28;20264;-54
2022/11/23 04:23:59;;;;;;;93.63;36.50;;;0.70;99.90;;;;;;5232663;28;20295;-52
2022/11/23 04:26:30;;;;;;;92.40;34.70;;;0.70;99.90;;;;;;5235029;28;20638;-48
2022/11/23 04:29:00;;;;;;;97.00;35.50;;;0.70;99.90;;;;;;5217151;28;20193;-48
2022/11/23 04:31:31;;;;;;;113.03;40.20;;;0.70;99.90;;;;;;5231691;28;20182;-49
2022/11/23 04:34:02;;;;;;;106.73;40.07;;;0.70;99.90;;;;;;5233035;28;20214;-51
2022/11/23 04:36:32;;;;;;;109.90;36.97;;;0.80;99.90;;;;;;5217170;28;20183;-49
2022/11/23 04:39:04;;;;;;;97.97;37.60;;;0.80;99.90;;;;;;5232965;28;20204;-50
2022/11/23 04:41:34;;;;;;;85.43;34.50;;;0.70;99.90;;;;;;5233013;28;20183;-53
2022/11/23 04:44:05;;;;;;;89.30;34.00;;;0.80;99.90;;;;;;5228721;28;20451;-49
2022/11/23 04:46:36;;;;;;;97.47;35.90;;;0.70;99.90;;;;;;5219257;28;20185;-49
2022/11/23 04:49:08;;;;;;;79.40;34.63;;;0.70;99.90;;;;;;5235548;28;21034;-50
2022/11/23 04:51:38;;;;;;;85.87;34.43;;;0.80;99.90;;;;;;5226202;28;20172;-50
2022/11/23 04:54:09;;;;;;;87.30;35.70;;;0.80;99.90;;;;;;5232365;28;20462;-49
2022/11/23 04:56:40;;;;;;;84.83;35.83;;;0.80;99.90;;;;;;5230134;28;20190;-49
2022/11/23 04:59:10;;;;;;;87.10;35.67;;;0.80;99.90;;;;;;5218315;28;20184;-49
2022/11/23 05:01:41;;;;;;;85.47;34.83;;;0.70;99.90;;;;;;5220512;28;20186;-50
2022/11/23 05:04:12;;;;;;;76.93;33.77;;;0.70;99.90;;;;;;5225471;28;20292;-49
2022/11/23 05:06:42;;;;;;;85.30;35.10;;;0.70;99.90;;;;;;5204453;28;20184;-54
2022/11/23 05:09:13;;;;;;;97.07;37.00;;;0.70;99.90;;;;;;5233956;28;20860;-50
2022/11/23 05:11:44;;;;;;;78.33;33.43;;;0.80;99.90;;;;;;5234495;28;20524;-52
2022/11/23 05:14:14;;;;;;;74.17;31.87;;;0.80;99.90;;;;;;5229237;28;20278;-53
2022/11/23 05:16:45;;;;;;;85.00;33.13;;;0.80;99.90;;;;;;5201949;28;20703;-49
2022/11/23 05:19:15;;;;;;;74.50;30.40;;;0.80;99.90;;;;;;5238882;28;20189;-49
2022/11/23 05:21:46;;;;;;;77.23;32.83;;;0.80;99.90;;;;;;5234710;28;20234;-49
2022/11/23 05:24:16;;;;;;;90.10;33.87;;;0.90;99.90;;;;;;5226199;28;20212;-50
2022/11/23 05:26:47;;;;;;;84.63;32.80;;;0.90;99.90;;;;;;5213796;28;20654;-51
2022/11/23 05:29:18;;;;;;;84.83;33.00;;;1.00;99.90;;;;;;5233764;28;20179;-50
2022/11/23 05:31:48;;;;;;;84.70;36.23;;;1.00;99.90;;;;;;5218873;28;20519;-49
2022/11/23 05:34:19;;;;;;;76.80;32.70;;;1.00;99.90;;;;;;5235378;28;20284;-52
2022/11/23 05:36:49;;;;;;;83.53;33.97;;;1.00;99.90;;;;;;5214854;28;20272;-48
2022/11/23 05:39:20;;;;;;;83.13;32.13;;;1.00;99.90;;;;;;5233423;28;20175;-49
2022/11/23 05:41:51;;;;;;;74.63;33.27;;;1.00;99.90;;;;;;5223615;28;20658;-50
2022/11/23 05:44:21;;;;;;;83.37;34.10;;;1.10;99.90;;;;;;5214314;28;20606;-53
2022/11/23 05:46:52;;;;;;;80.80;32.80;;;1.00;99.90;;;;;;5233404;28;20220;-49
2022/11/23 05:49:23;;;;;;;71.13;30.80;;;1.10;99.90;;;;;;5231551;28;20662;-51
2022/11/23 05:51:53;;;;;;;77.80;31.80;;;1.20;99.90;;;;;;5230258;28;20177;-49
2022/11/23 05:54:24;;;;;;;78.57;32.70;;;1.20;99.90;;;;;;5225525;28;20211;-48
2022/11/23 05:56:54;;;;;;;76.10;30.00;;;1.10;99.90;;;;;;5236964;28;20183;-55
2022/11/23 05:59:25;;;;;;;87.70;31.80;;;1.20;99.90;;;;;;5230500;28;20183;-47
2022/11/23 06:01:56;;;;;;;77.67;30.73;;;1.30;99.90;;;;;;5208091;28;20215;-55
2022/11/23 06:04:26;;;;;;;64.17;30.60;;;1.30;99.90;;;;;;5235206;28;20258;-48
2022/11/23 06:06:59;;;;;;;58.73;27.67;;;1.30;99.90;;;;;;5226945;28;20286;-50
2022/11/23 06:09:30;;;;;;;69.10;29.30;;;1.40;99.90;;;;;;5228638;28;20184;-49
2022/11/23 06:12:00;;;;;;;71.93;28.90;;;1.30;99.90;;;;;;5222697;28;20448;-48
2022/11/23 06:14:31;;;;;;;53.93;27.50;;;1.30;99.90;;;;;;5236214;28;20201;-50
2022/11/23 06:17:02;;;;;;;58.17;26.70;;;1.30;99.90;;;;;;5230974;28;20240;-47
2022/11/23 06:19:32;;;;;;;52.30;25.83;;;1.30;99.90;;;;;;5195978;28;20185;-53
2022/11/23 06:22:03;;;;;;;68.47;28.50;;;1.30;99.90;;;;;;5211609;28;20266;-55
2022/11/23 06:24:34;;;;;;;60.20;26.47;;;1.20;99.90;;;;;;5234765;28;20203;-50
2022/11/23 06:27:04;;;;;;;61.80;28.10;;;1.10;99.90;;;;;;5232645;28;20183;-51
2022/11/23 06:29:35;;;;;;;60.37;27.77;;;1.10;99.90;;;;;;5195966;28;20187;-50
2022/11/23 06:32:07;;;;;;;62.80;28.90;;;1.00;99.90;;;;;;5214209;28;20200;-48
2022/11/23 06:34:38;;;;;;;72.40;28.83;;;1.00;99.90;;;;;;5232838;28;20691;-52
2022/11/23 06:37:09;;;;;;;69.03;28.13;;;1.00;99.90;;;;;;5211954;28;20634;-54
2022/11/23 06:39:40;;;;;;;64.93;28.77;;;0.90;99.90;;;;;;5223523;28;20186;-50
2022/11/23 06:42:12;;;;;;;59.63;28.30;;;0.90;99.90;;;;;;5221199;28;20456;-48
2022/11/23 06:44:42;;;;;;;70.83;27.43;;;0.90;99.90;;;;;;5225608;28;20194;-50
2022/11/23 06:47:13;;;;;;;63.30;26.93;;;0.90;99.90;;;;;;5224870;28;20442;-48
2022/11/23 06:49:44;;;;;;;62.60;28.00;;;0.80;99.90;;;;;;5220104;28;20190;-49
2022/11/23 06:52:14;;;;;;;72.90;29.43;;;0.90;99.90;;;;;;5207824;28;20195;-50
2022/11/23 06:54:46;;;;;;;60.30;27.43;;;0.90;99.90;;;;;;5237683;28;20240;-48
2022/11/23 06:57:17;;;;;;;53.00;26.20;;;0.80;99.90;;;;;;5207166;28;20190;-50
2022/11/23 06:59:47;;;;;;;62.00;27.90;;;0.90;99.90;;;;;;5221176;28;20443;-50
2022/11/23 07:02:18;;;;;;;64.17;28.53;;;0.90;99.90;;;;;;5216470;28;20236;-49
2022/11/23 07:04:51;;;;;;;65.00;28.80;;;0.90;99.90;;;;;;5218646;28;20208;-48
2022/11/23 07:07:22;;;;;;;62.47;29.77;;;0.90;99.90;;;;;;5216212;28;20544;-47
2022/11/23 07:09:52;;;;;;;59.53;28.30;;;1.10;99.90;;;;;;5212774;28;20441;-49
2022/11/23 07:12:23;;;;;;;66.33;29.63;;;1.20;99.90;;;;;;5215554;28;20711;-48
2022/11/23 07:14:54;;;;;;;68.33;30.40;;;1.10;99.90;;;;;;5226121;28;20205;-49
2022/11/23 07:17:24;;;;;;;56.83;25.97;;;1.00;99.90;;;;;;5225854;28;20197;-49
2022/11/23 07:19:55;;;;;;;67.00;28.40;;;1.00;99.90;;;;;;5240273;28;20190;-49
2022/11/23 07:22:25;;;;;;;71.73;28.20;;;1.00;99.90;;;;;;5237938;28;20214;-52
2022/11/23 07:24:56;;;;;;;56.20;28.03;;;0.90;99.90;;;;;;5222098;28;20365;-49
2022/11/23 07:27:27;;;;;;;61.97;28.67;;;0.80;99.90;;;;;;5239682;28;20180;-47
2022/11/23 07:29:57;;;;;;;79.53;30.77;;;0.90;99.90;;;;;;5237600;28;20803;-52
2022/11/23 07:32:28;;;;;;;68.30;30.07;;;0.80;99.90;;;;;;5235308;28;20196;-52
2022/11/23 07:34:58;;;;;;;81.40;31.80;;;0.90;99.90;;;;;;5222438;28;20214;-56
2022/11/23 07:37:29;;;;;;;72.40;30.80;;;0.90;99.90;;;;;;5228705;28;20190;-52
2022/11/23 07:40:00;;;;;;;75.73;29.90;;;0.90;99.90;;;;;;5220373;28;20186;-51
2022/11/23 07:42:30;;;;;;;66.70;28.60;;;1.00;99.90;;;;;;5213940;28;20286;-53
2022/11/23 07:45:02;;;;;;;65.03;29.20;;;1.10;99.90;;;;;;5220624;28;20215;-52
2022/11/23 07:47:33;;;;;;;83.30;29.87;;;1.10;99.90;;;;;;5229388;28;20185;-49
2022/11/23 07:50:05;;;;;;;67.97;27.60;;;1.20;99.90;;;;;;5224063;28;20440;-48
2022/11/23 07:52:37;;;;;;;57.27;26.20;;;1.20;99.90;;;;;;5229712;28;20668;-49
2022/11/23 07:55:08;;;;;;;57.00;26.50;;;1.30;99.90;;;;;;5210401;28;21014;-51
2022/11/23 07:57:39;;;;;;;59.23;27.37;;;1.40;99.90;;;;;;5225139;28;20454;-53
2022/11/23 08:00:11;;;;;;;67.07;29.13;;;1.40;99.90;;;;;;5232519;28;20433;-49
2022/11/23 08:02:41;;;;;;;49.97;25.00;;;1.50;99.90;;;;;;5226599;28;20202;-50
2022/11/23 08:05:12;;;;;;;64.37;26.47;;;1.50;99.90;;;;;;5224635;28;20503;-51
2022/11/23 08:07:44;;;;;;;61.03;25.53;;;1.50;99.90;;;;;;5221994;28;20231;-52
2022/11/23 08:10:14;;;;;;;57.00;26.63;;;1.60;99.90;;;;;;5227633;28;20242;-52
2022/11/23 08:12:45;;;;;;;58.83;27.10;;;1.60;99.90;;;;;;5227073;28;20428;-51
2022/11/23 08:15:16;;;;;;;61.00;28.40;;;1.70;99.90;;;;;;5222599;28;20214;-50
2022/11/23 08:17:46;;;;;;;47.17;24.57;;;1.70;99.90;;;;;;5229586;28;20194;-52
2022/11/23 08:20:17;;;;;;;66.27;26.10;;;1.70;99.90;;;;;;5226688;28;20952;-52
2022/11/23 08:22:47;;;;;;;55.87;24.87;;;1.80;99.90;;;;;;5225938;28;20788;-50
2022/11/23 08:25:18;;;;;;;54.17;24.90;;;1.90;99.90;;;;;;5211098;28;20737;-50
2022/11/23 08:27:54;;;;;;;50.30;24.70;;;2.00;99.90;;;;;;5220636;28;20171;-51
2022/11/23 08:30:27;;;;;;;56.73;23.57;;;2.10;99.90;;;;;;5225597;28;20639;-52
2022/11/23 08:32:58;;;;;;;54.60;23.30;;;2.10;99.90;;;;;;5220366;28;21213;-51
2022/11/23 08:35:29;;;;;;;50.83;23.13;;;2.20;99.90;;;;;;5218261;28;20445;-52
2022/11/23 08:38:00;;;;;;;51.20;24.20;;;2.30;99.90;;;;;;5231206;28;20432;-52
2022/11/23 08:40:31;;;;;;;41.97;22.03;;;2.40;99.90;;;;;;5208764;28;20499;-51
2022/11/23 08:43:02;;;;;;;43.27;21.50;;;2.40;99.90;;;;;;5210984;28;20203;-52
2022/11/23 08:45:33;;;;;;;49.23;23.43;;;2.40;99.90;;;;;;5210783;28;20528;-52
2022/11/23 08:48:04;;;;;;;48.23;22.53;;;2.40;99.90;;;;;;5208919;28;20476;-52
2022/11/23 08:50:35;;;;;;;44.30;22.13;;;2.60;99.90;;;;;;5182314;28;20193;-51
2022/11/23 08:53:06;;;;;;;49.77;22.00;;;2.70;99.90;;;;;;5223731;28;20457;-50
2022/11/23 08:55:37;;;;;;;45.33;22.73;;;2.70;99.90;;;;;;5231033;28;20444;-52
2022/11/23 08:58:08;;;;;;;37.27;21.63;;;2.70;99.90;;;;;;5209784;28;20187;-50
2022/11/23 09:00:38;;;;;;;43.00;23.20;;;2.80;99.90;;;;;;5228592;28;20193;-53
2022/11/23 09:03:12;;;;;;;37.67;21.40;;;3.00;99.90;;;;;;5220444;28;20202;-53
2022/11/23 09:05:42;;;;;;;39.43;21.80;;;3.00;99.90;;;;;;5201562;28;20317;-51
2022/11/23 09:08:15;;;;;;;40.87;20.10;;;3.10;99.90;;;;;;5223716;28;20456;-53
2022/11/23 09:10:45;;;;;;;46.83;22.03;;;3.40;99.90;;;;;;5226668;28;20679;-51
2022/11/23 09:13:16;;;;;;;46.57;21.63;;;3.50;99.90;;;;;;5220180;28;20595;-50
2022/11/23 09:15:47;;;;;;;41.20;20.77;;;3.50;99.90;;;;;;5220545;28;20209;-52
2022/11/23 09:18:17;;;;;;;38.87;21.33;;;3.40;99.90;;;;;;5219289;28;20186;-51
2022/11/23 09:20:48;;;;;;;39.60;21.37;;;3.50;99.90;;;;;;5218843;28;20218;-52
2022/11/23 09:23:18;;;;;;;41.03;21.27;;;3.40;99.90;;;;;;5207980;28;20214;-52
2022/11/23 09:25:49;;;;;;;47.97;20.50;;;3.30;99.90;;;;;;5205601;28;20635;-53
2022/11/23 09:28:21;;;;;;;41.97;20.93;;;3.20;99.90;;;;;;5208812;28;20209;-50
2022/11/23 09:30:52;;;;;;;41.13;21.53;;;3.20;99.90;;;;;;5206513;28;20209;-51
2022/11/23 09:33:24;;;;;;;40.23;21.53;;;3.00;99.90;;;;;;5225921;28;21001;-52
2022/11/23 09:36:03;;;;;;;36.83;19.90;;;3.10;99.90;;;;;;5213928;28;20603;-51
2022/11/23 09:38:33;;;;;;;47.50;19.50;;;2.90;99.90;;;;;;5218065;28;20873;-51
2022/11/23 09:41:34;;;;;;;37.37;20.60;;;3.00;99.90;;;;;;5217821;28;20913;-51
2022/11/23 09:44:32;;;;;;;44.23;21.00;;;3.00;99.90;;;;;;5214575;28;20599;-51
2022/11/23 09:47:24;;;;;;;38.17;19.93;;;3.10;99.90;;;;;;5226916;28;20503;-50
2022/11/23 09:50:02;;;;;;;40.17;20.47;;;3.30;99.90;;;;;;5222213;28;20426;-51
2022/11/23 09:52:35;;;;;;;40.47;20.73;;;3.30;99.90;;;;;;5224073;28;20453;-53
2022/11/23 09:55:21;;;;;;;39.77;20.10;;;3.30;99.90;;;;;;5207116;28;20452;-50
2022/11/23 09:57:59;;;;;;;40.90;18.77;;;3.40;99.90;;;;;;5225790;28;20534;-51
2022/11/23 10:00:39;;;;;;;43.77;19.83;;;3.40;99.90;;;;;;5223211;28;20784;-53
2022/11/23 10:03:15;;;;;;;43.23;20.30;;;3.40;99.90;;;;;;5232922;28;20463;-52
2022/11/23 10:06:02;;;;;;;48.00;20.43;;;3.40;99.90;;;;;;5238433;28;20424;-53
2022/11/23 10:09:02;;;;;;;42.17;20.93;;;3.50;99.90;;;;;;5235400;28;20519;-54
2022/11/23 10:12:12;;;;;;;41.70;19.73;;;3.50;99.90;;;;;;5205726;28;20452;-56
2022/11/23 10:15:08;;;;;;;43.77;20.70;;;3.70;99.90;;;;;;5197913;28;20848;-53
2022/11/23 10:18:35;;;;;;;51.17;20.70;;;3.90;99.90;;;;;;5240762;28;20798;-50
2022/11/23 10:21:41;;;;;;;44.93;20.47;;;3.80;99.90;;;;;;5162379;28;20538;-53
2022/11/23 10:24:20;;;;;;;36.20;19.77;;;3.90;99.90;;;;;;5160495;28;20467;-53
2022/11/23 10:26:51;;;;;;;41.80;19.60;;;3.80;99.90;;;;;;5227985;28;20489;-54
2022/11/23 10:29:29;;;;;;;35.33;19.20;;;4.10;99.90;;;;;;5239268;28;20425;-52
2022/11/23 10:32:00;;;;;;;33.87;18.50;;;4.00;99.90;;;;;;5224243;28;20668;-49
2022/11/23 10:34:43;;;;;;;33.33;18.10;;;4.00;99.90;;;;;;5236726;28;20454;-53
2022/11/23 10:37:16;;;;;;;32.63;18.20;;;4.10;99.90;;;;;;5236137;28;20932;-53
2022/11/23 10:39:47;;;;;;;31.60;18.00;;;4.30;99.90;;;;;;5224471;28;20506;-52
2022/11/23 10:42:25;;;;;;;31.30;17.93;;;4.30;99.90;;;;;;5241546;28;20516;-54
2022/11/23 10:44:57;;;;;;;32.80;18.30;;;4.20;99.90;;;;;;5237725;28;20288;-54
2022/11/23 10:47:37;;;;;;;39.10;18.77;;;4.40;99.90;;;;;;5234910;28;20464;-53
2022/11/23 10:50:22;;;;;;;33.03;17.37;;;4.40;99.90;;;;;;5243082;28;20434;-54
2022/11/23 10:52:58;;;;;;;27.63;16.73;;;4.60;99.90;;;;;;5240748;28;20438;-54
2022/11/23 10:55:32;;;;;;;33.53;17.40;;;4.70;99.90;;;;;;5231637;28;20481;-54
2022/11/23 10:58:02;;;;;;;27.93;16.37;;;4.80;99.90;;;;;;5218403;28;20722;-52
2022/11/23 11:00:33;;;;;;;32.63;17.60;;;4.60;99.90;;;;;;5224450;28;20431;-53
2022/11/23 11:05:56;;;;;;;37.97;18.97;;;4.90;99.90;;;;;;5244837;23;20228;-51
2022/11/23 11:08:30;;;;;;;37.93;19.53;;;4.90;99.90;;;;;;5234286;28;20995;-50
2022/11/23 11:11:10;;;;;;;30.93;16.70;;;5.00;99.90;;;;;;5224489;28;20448;-49
2022/11/23 11:13:46;;;;;;;28.13;17.40;;;5.00;99.90;;;;;;5242279;28;20457;-51
2022/11/23 11:16:33;;;;;;;34.77;18.17;;;5.10;99.90;;;;;;5213557;28;20449;-51
2022/11/23 11:19:23;;;;;;;43.47;17.43;;;5.20;99.90;;;;;;5191073;28;20435;-52
2022/11/23 11:21:55;;;;;;;28.13;16.20;;;5.10;99.90;;;;;;5223432;28;20440;-49
2022/11/23 11:24:30;;;;;;;35.00;17.47;;;5.20;99.90;;;;;;5233816;28;20495;-52
2022/11/23 11:27:05;;;;;;;28.73;16.60;;;5.30;99.90;;;;;;5241635;28;20438;-50
2022/11/23 11:29:47;;;;;;;35.43;16.90;;;5.30;99.90;;;;;;5242194;28;20946;-51
2022/11/23 11:32:27;;;;;;;32.93;16.87;;;5.40;99.90;;;;;;5222622;28;20787;-50
2022/11/23 11:35:24;;;;;;;25.73;15.53;;;5.50;99.90;;;;;;5236597;28;20527;-51
2022/11/23 11:38:03;;;;;;;30.33;16.77;;;5.50;99.90;;;;;;5223556;28;20456;-52
2022/11/23 11:40:36;;;;;;;28.03;16.77;;;5.70;99.90;;;;;;5242196;28;20419;-51
2022/11/23 11:43:22;;;;;;;29.43;15.27;;;5.60;99.90;;;;;;5226057;28;20471;-52
2022/11/23 11:45:57;;;;;;;32.40;15.60;;;5.80;99.90;;;;;;5244324;28;20483;-51
2022/11/23 11:48:42;;;;;;;31.37;16.37;;;6.00;99.90;;;;;;5237246;28;20852;-52
2022/11/23 11:51:27;;;;;;;26.60;15.57;;;6.30;99.90;;;;;;5239969;28;21198;-51
2022/11/23 11:54:23;;;;;;;27.93;15.27;;;6.30;99.90;;;;;;5234789;28;20581;-50
2022/11/23 11:57:05;;;;;;;30.93;15.17;;;6.30;99.90;;;;;;5233521;28;21007;-52
2022/11/23 11:59:46;;;;;;;27.03;15.57;;;6.20;99.90;;;;;;5225272;28;20494;-52
2022/11/23 12:02:40;;;;;;;34.33;16.03;;;6.10;99.90;;;;;;5239242;28;21083;-51
2022/11/23 12:05:35;;;;;;;28.60;15.30;;;6.10;99.90;;;;;;5240780;28;20788;-52
2022/11/23 12:08:13;;;;;;;24.77;15.03;;;6.10;99.90;;;;;;5224192;28;20433;-52
2022/11/23 12:10:56;;;;;;;24.67;14.30;;;6.20;99.90;;;;;;5238111;28;20511;-52
2022/11/23 12:13:40;;;;;;;26.30;15.23;;;6.20;99.90;;;;;;5219189;28;20436;-52
2022/11/23 12:16:32;;;;;;;24.90;14.53;;;6.20;99.90;;;;;;5235329;28;20448;-50
2022/11/23 12:19:15;;;;;;;30.30;16.43;;;6.10;99.90;;;;;;5230788;28;20537;-50
2022/11/23 12:22:09;;;;;;;31.27;14.70;;;6.20;99.90;;;;;;5236074;28;20613;-52
2022/11/23 12:25:11;;;;;;;28.50;16.00;;;6.20;99.90;;;;;;5219629;28;21132;-52
2022/11/23 12:27:56;;;;;;;35.87;16.10;;;6.40;99.90;;;;;;5239399;28;20608;-51
2022/11/23 12:30:37;;;;;;;27.67;15.17;;;6.40;99.90;;;;;;5220774;28;20943;-52
2022/11/23 12:33:36;;;;;;;27.23;14.27;;;6.30;99.90;;;;;;5218662;28;20437;-53
2022/11/23 12:36:34;;;;;;;26.43;13.83;;;6.50;99.90;;;;;;5243265;28;20485;-50
2022/11/23 12:39:36;;;;;;;25.60;14.83;;;6.40;99.90;;;;;;5238099;28;20519;-53
2022/11/23 12:42:18;;;;;;;29.77;14.83;;;6.40;99.90;;;;;;5238135;28;20980;-53
2022/11/23 12:45:10;;;;;;;32.10;15.63;;;6.40;99.90;;;;;;5236887;28;20456;-53
2022/11/23 12:48:00;;;;;;;24.30;15.30;;;6.20;99.90;;;;;;5230469;28;20457;-51
2022/11/23 12:50:44;;;;;;;34.17;17.37;;;6.10;99.90;;;;;;5233951;28;20444;-53
2022/11/23 12:53:34;;;;;;;30.47;15.93;;;6.20;99.90;;;;;;5238293;28;20493;-53
2022/11/23 12:56:17;;;;;;;27.67;15.33;;;6.10;99.90;;;;;;5221181;28;20567;-53
2022/11/23 12:58:49;;;;;;;30.13;16.30;;;6.20;99.90;;;;;;5235333;28;20498;-51
2022/11/23 13:01:45;;;;;;;32.77;17.00;;;6.10;99.90;;;;;;5237153;28;20448;-54
2022/11/23 13:04:45;;;;;;;33.13;16.63;;;6.10;99.90;;;;;;5234026;28;20509;-52
2022/11/23 13:07:35;;;;;;;29.47;15.13;;;6.10;99.90;;;;;;5235796;28;20444;-52
2022/11/23 13:10:18;;;;;;;30.23;15.93;;;6.10;99.90;;;;;;5236878;28;20443;-53
2022/11/23 13:12:52;;;;;;;27.40;13.70;;;6.10;99.90;;;;;;5221744;28;20432;-53
2022/11/23 13:15:40;;;;;;;25.73;15.17;;;6.20;99.90;;;;;;5221442;28;20551;-52